createdAt,value
2023-03-05T00:01:48.918Z,19.10
2023-03-05T00:04:17.177Z,18.77
2023-03-05T00:06:45.612Z,17.70
2023-03-05T00:09:14.324Z,18.13
2023-03-05T00:11:42.608Z,17.20
2023-03-05T00:14:12.069Z,16.70
2023-03-05T00:16:41.893Z,19.70
2023-03-05T00:19:11.409Z,17.93
2023-03-05T00:21:40.921Z,16.93
2023-03-05T00:24:11.835Z,16.83
2023-03-05T00:26:41.030Z,19.53
2023-03-05T00:29:10.427Z,15.70
2023-03-05T00:31:39.059Z,18.77
2023-03-05T00:34:12.173Z,16.97
2023-03-05T00:36:41.392Z,16.30
2023-03-05T00:39:09.741Z,18.20
2023-03-05T00:41:38.191Z,17.17
2023-03-05T00:44:06.691Z,17.17
2023-03-05T00:46:36.266Z,17.63
2023-03-05T00:49:04.786Z,16.50
2023-03-05T00:51:34.930Z,16.73
2023-03-05T00:54:04.125Z,15.77
2023-03-05T00:56:32.618Z,15.97
2023-03-05T00:59:00.885Z,17.20
2023-03-05T01:01:29.617Z,16.80
2023-03-05T01:03:59.690Z,15.50
2023-03-05T01:06:28.097Z,16.10
2023-03-05T01:08:59.264Z,15.43
2023-03-05T01:11:27.715Z,17.40
2023-03-05T01:13:55.950Z,17.33
2023-03-05T01:16:24.303Z,16.33
2023-03-05T01:18:52.586Z,15.40
2023-03-05T01:21:22.115Z,17.30
2023-03-05T01:23:50.589Z,19.63
2023-03-05T01:26:20.242Z,16.70
2023-03-05T01:28:49.521Z,17.42
2023-03-05T01:31:17.777Z,18.70
2023-03-05T01:33:46.080Z,15.90
2023-03-05T01:36:17.021Z,17.83
2023-03-05T01:38:46.779Z,17.20
2023-03-05T01:41:17.122Z,17.50
2023-03-05T01:43:47.186Z,17.27
2023-03-05T01:46:37.119Z,18.27
2023-03-05T01:49:13.172Z,16.57
2023-03-05T01:51:44.599Z,18.07
2023-03-05T01:54:14.863Z,17.70
2023-03-05T01:56:43.502Z,17.50
2023-03-05T01:59:14.133Z,18.17
2023-03-05T02:01:45.093Z,17.00
2023-03-05T02:04:17.669Z,15.50
2023-03-05T02:06:47.161Z,17.17
2023-03-05T02:09:15.740Z,17.73
2023-03-05T02:11:44.740Z,15.70
2023-03-05T02:14:14.486Z,17.98
2023-03-05T02:16:42.842Z,15.70
2023-03-05T02:19:12.794Z,14.90
2023-03-05T02:21:45.508Z,17.10
2023-03-05T02:24:14.694Z,17.37
2023-03-05T02:26:44.921Z,16.60
2023-03-05T02:29:16.929Z,14.15
2023-03-05T02:31:45.370Z,16.13
2023-03-05T02:34:14.050Z,16.60
2023-03-05T02:36:43.723Z,15.00
2023-03-05T02:39:13.791Z,16.50
2023-03-05T02:41:42.094Z,16.20
2023-03-05T02:44:10.460Z,15.13
2023-03-05T02:46:38.879Z,16.30
2023-03-05T02:49:07.134Z,18.40
2023-03-05T02:51:35.400Z,15.70
2023-03-05T02:54:05.359Z,16.70
2023-03-05T02:56:33.987Z,15.30
2023-03-05T02:59:03.140Z,15.70
2023-03-05T03:01:31.622Z,17.10
2023-03-05T03:04:00.061Z,16.10
2023-03-05T03:06:28.339Z,15.05
2023-03-05T03:08:56.612Z,15.65
2023-03-05T03:11:26.237Z,15.15
2023-03-05T03:13:54.535Z,15.27
2023-03-05T03:16:22.803Z,16.00
2023-03-05T03:18:51.138Z,16.45
2023-03-05T03:21:21.240Z,15.15
2023-03-05T03:23:49.521Z,15.43
2023-03-05T03:26:18.485Z,15.50
2023-03-05T03:28:48.149Z,15.07
2023-03-05T03:31:17.051Z,16.05
2023-03-05T03:33:46.606Z,16.77
2023-03-05T03:36:15.072Z,16.33
2023-03-05T03:38:43.507Z,13.07
2023-03-05T03:41:11.816Z,13.60
2023-03-05T03:43:40.084Z,15.60
2023-03-05T03:46:09.777Z,16.23
2023-03-05T03:48:38.230Z,16.20
2023-03-05T03:51:08.835Z,16.27
2023-03-05T03:53:37.354Z,15.05
2023-03-05T03:56:06.225Z,15.68
2023-03-05T03:58:34.685Z,16.48
2023-03-05T04:01:03.101Z,32.03
2023-03-05T04:03:32.722Z,32.22
2023-03-05T04:06:00.995Z,23.45
2023-03-05T04:08:29.283Z,19.52
2023-03-05T04:10:57.538Z,16.90
2023-03-05T04:13:25.739Z,16.35
2023-03-05T04:15:54.509Z,16.20
2023-03-05T04:18:22.882Z,16.60
2023-03-05T04:20:52.595Z,14.77
2023-03-05T04:23:21.396Z,16.17
2023-03-05T04:25:49.831Z,17.13
2023-03-05T04:28:18.880Z,15.73
2023-03-05T04:30:47.255Z,19.25
2023-03-05T04:33:15.691Z,15.88
2023-03-05T04:35:44.300Z,17.08
2023-03-05T04:38:14.449Z,15.60
2023-03-05T04:40:43.049Z,17.50
2023-03-05T04:43:11.381Z,17.25
2023-03-05T04:45:40.978Z,15.13
2023-03-05T04:48:11.171Z,14.77
2023-03-05T04:50:39.450Z,15.52
2023-03-05T04:53:08.089Z,15.95
2023-03-05T04:55:37.757Z,14.95
2023-03-05T04:58:05.967Z,16.50
2023-03-05T05:00:34.289Z,16.23
2023-03-05T05:03:02.609Z,14.50
2023-03-05T05:05:31.044Z,15.20
2023-03-05T05:08:00.249Z,16.35
2023-03-05T05:10:28.594Z,15.13
2023-03-05T05:12:58.499Z,14.40
2023-03-05T05:15:26.801Z,15.95
2023-03-05T05:17:55.098Z,17.00
2023-03-05T05:20:23.579Z,15.57
2023-03-05T05:22:51.835Z,14.60
2023-03-05T05:25:20.288Z,14.70
2023-03-05T05:27:48.730Z,16.58
2023-03-05T05:30:18.853Z,16.35
2023-03-05T05:32:47.161Z,16.88
2023-03-05T05:35:15.547Z,15.23
2023-03-05T05:37:43.845Z,15.55
2023-03-05T05:40:13.271Z,16.63
2023-03-05T05:42:41.499Z,13.82
2023-03-05T05:45:11.447Z,14.85
2023-03-05T05:47:41.181Z,12.85
2023-03-05T05:50:10.493Z,17.77
2023-03-05T05:52:38.770Z,15.55
2023-03-05T05:55:08.178Z,9.68
2023-03-05T05:57:36.529Z,14.38
2023-03-05T06:00:06.602Z,14.20
2023-03-05T06:02:41.734Z,14.85
2023-03-05T06:05:12.775Z,13.88
2023-03-05T06:07:41.094Z,16.55
2023-03-05T06:10:11.141Z,15.27
2023-03-05T06:12:39.778Z,17.23
2023-03-05T06:15:09.481Z,14.65
2023-03-05T06:17:37.786Z,17.15
2023-03-05T06:20:09.431Z,17.60
2023-03-05T06:22:38.345Z,16.58
2023-03-05T06:25:08.105Z,16.25
2023-03-05T06:27:36.783Z,19.08
2023-03-05T06:30:06.359Z,15.57
2023-03-05T06:32:34.794Z,16.75
2023-03-05T06:35:03.103Z,17.63
2023-03-05T06:37:32.972Z,15.95
2023-03-05T06:40:01.250Z,15.57
2023-03-05T06:42:29.524Z,16.17
2023-03-05T06:44:57.865Z,19.83
2023-03-05T06:47:26.111Z,19.58
2023-03-05T06:49:54.355Z,13.65
2023-03-05T06:52:22.614Z,14.77
2023-03-05T06:54:52.912Z,16.83
2023-03-05T06:57:21.266Z,15.20
2023-03-05T06:59:49.663Z,13.23
2023-03-05T07:02:19.278Z,14.80
2023-03-05T07:04:47.562Z,16.95
2023-03-05T07:07:15.867Z,17.70
2023-03-05T07:09:46.049Z,16.90
2023-03-05T07:12:15.700Z,15.60
2023-03-05T07:14:43.972Z,15.60
2023-03-05T07:17:12.318Z,6.60
2023-03-05T07:19:40.600Z,14.50
2023-03-05T07:22:09.087Z,17.13
2023-03-05T07:24:37.322Z,17.27
2023-03-05T07:27:05.706Z,15.40
2023-03-05T07:29:35.804Z,18.83
2023-03-05T07:32:04.352Z,17.40
2023-03-05T07:34:32.917Z,15.93
2023-03-05T07:37:01.149Z,17.10
2023-03-05T07:39:29.449Z,24.10
2023-03-05T07:41:57.758Z,18.37
2023-03-05T07:44:31.445Z,16.80
2023-03-05T07:47:01.043Z,18.00
2023-03-05T07:49:29.229Z,17.97
2023-03-05T07:51:57.491Z,15.80
2023-03-05T07:54:25.727Z,15.20
2023-03-05T07:56:55.772Z,17.10
2023-03-05T07:59:23.988Z,16.10
2023-03-05T08:01:52.266Z,16.93
2023-03-05T08:04:21.944Z,17.70
2023-03-05T08:06:50.326Z,18.27
2023-03-05T08:09:19.116Z,18.13
2023-03-05T08:11:47.522Z,20.37
2023-03-05T08:14:15.898Z,19.10
2023-03-05T08:16:46.308Z,19.73
2023-03-05T08:19:15.500Z,18.43
2023-03-05T08:21:45.597Z,17.10
2023-03-05T08:24:14.395Z,17.00
2023-03-05T08:26:43.197Z,17.43
2023-03-05T08:29:11.934Z,17.50
2023-03-05T08:31:40.883Z,18.80
2023-03-05T08:34:09.183Z,17.43
2023-03-05T08:36:37.549Z,17.80
2023-03-05T08:39:08.628Z,15.83
2023-03-05T08:41:37.000Z,19.30
2023-03-05T08:44:05.695Z,18.23
2023-03-05T08:46:34.095Z,18.00
2023-03-05T08:49:02.464Z,19.10
2023-03-05T08:51:30.916Z,19.37
2023-03-05T08:54:00.055Z,18.30
2023-03-05T08:56:31.516Z,20.13
2023-03-05T08:59:00.134Z,19.57
2023-03-05T09:01:28.528Z,18.70
2023-03-05T09:03:56.835Z,18.80
2023-03-05T09:06:25.270Z,17.80
2023-03-05T09:08:53.909Z,17.60
2023-03-05T09:11:22.538Z,16.77
2023-03-05T09:13:52.293Z,17.30
2023-03-05T09:16:21.180Z,16.90
2023-03-05T09:18:49.433Z,17.30
2023-03-05T09:21:18.736Z,17.93
2023-03-05T09:23:48.135Z,15.70
2023-03-05T09:26:19.429Z,16.90
2023-03-05T09:28:48.517Z,17.30
2023-03-05T09:31:18.661Z,16.33
2023-03-05T09:33:48.798Z,18.10
2023-03-05T09:36:22.197Z,16.50
2023-03-05T09:38:50.957Z,16.17
2023-03-05T09:41:26.308Z,16.40
2023-03-05T09:44:00.688Z,15.47
2023-03-05T09:46:36.550Z,16.70
2023-03-05T09:49:14.337Z,14.30
2023-03-05T09:51:46.589Z,15.93
2023-03-05T09:54:19.011Z,16.93
2023-03-05T09:56:50.254Z,16.07
2023-03-05T09:59:29.401Z,16.47
2023-03-05T10:02:01.350Z,18.53
2023-03-05T10:04:40.130Z,15.87
2023-03-05T10:07:14.339Z,16.63
2023-03-05T10:09:46.313Z,14.20
2023-03-05T10:12:21.277Z,16.10
2023-03-05T10:14:50.480Z,15.60
2023-03-05T10:17:56.027Z,17.03
2023-03-05T10:20:33.930Z,16.47
2023-03-05T10:23:13.042Z,15.27
2023-03-05T10:25:53.599Z,13.87
2023-03-05T10:28:24.078Z,14.50
2023-03-05T10:31:03.223Z,14.40
2023-03-05T10:33:36.738Z,15.30
2023-03-05T10:36:29.143Z,15.53
2023-03-05T10:39:29.323Z,14.67
2023-03-05T10:42:06.183Z,14.50
2023-03-05T10:44:38.332Z,15.57
2023-03-05T10:47:14.176Z,16.37
2023-03-05T10:49:50.188Z,15.67
2023-03-05T10:52:23.747Z,15.80
2023-03-05T10:54:53.005Z,15.33
2023-03-05T10:57:23.384Z,16.13
2023-03-05T10:59:53.088Z,14.30
2023-03-05T11:02:23.036Z,15.70
2023-03-05T11:04:52.655Z,16.50
2023-03-05T11:07:40.025Z,15.10
2023-03-05T11:10:21.390Z,15.10
2023-03-05T11:12:49.803Z,16.93
2023-03-05T11:15:39.036Z,13.77
2023-03-05T11:18:19.680Z,14.60
2023-03-05T11:20:49.632Z,12.73
2023-03-05T11:23:21.400Z,15.00
2023-03-05T11:25:55.682Z,15.30
2023-03-05T11:28:33.306Z,14.10
2023-03-05T11:31:07.550Z,15.20
2023-03-05T11:33:37.581Z,16.80
2023-03-05T11:36:24.517Z,15.13
2023-03-05T11:38:58.477Z,15.33
2023-03-05T11:41:31.298Z,13.73
2023-03-05T11:44:00.588Z,13.47
2023-03-05T11:46:30.224Z,15.30
2023-03-05T11:49:00.503Z,16.40
2023-03-05T11:51:36.035Z,12.80
2023-03-05T11:54:13.235Z,11.90
2023-03-05T11:56:44.260Z,13.80
2023-03-05T11:59:16.398Z,14.57
2023-03-05T12:01:47.539Z,13.50
2023-03-05T12:04:17.513Z,13.47
2023-03-05T12:06:47.984Z,13.20
2023-03-05T12:09:25.226Z,13.23
2023-03-05T12:11:58.210Z,13.57
2023-03-05T12:14:29.791Z,13.57
2023-03-05T12:17:05.373Z,11.77
2023-03-05T12:19:43.957Z,13.90
2023-03-05T12:22:21.741Z,14.43
2023-03-05T12:24:52.415Z,15.60
2023-03-05T12:27:40.309Z,13.67
2023-03-05T12:30:47.562Z,13.63
2023-03-05T12:33:38.684Z,13.97
2023-03-05T12:36:44.294Z,12.97
2023-03-05T12:39:47.845Z,13.43
2023-03-05T12:43:01.182Z,13.20
2023-03-05T12:45:43.173Z,14.07
2023-03-05T12:48:44.610Z,15.70
2023-03-05T12:51:30.276Z,13.40
2023-03-05T12:54:19.314Z,13.93
2023-03-05T12:56:49.500Z,14.53
2023-03-05T12:59:22.346Z,13.57
2023-03-05T13:01:57.043Z,14.23
2023-03-05T13:04:28.309Z,14.07
2023-03-05T13:07:01.237Z,14.80
2023-03-05T13:09:31.962Z,12.53
2023-03-05T13:12:02.314Z,12.40
2023-03-05T13:14:35.235Z,15.53
2023-03-05T13:17:33.086Z,11.63
2023-03-05T13:20:06.274Z,12.30
2023-03-05T13:22:35.094Z,13.50
2023-03-05T13:25:20.558Z,13.60
2023-03-05T13:27:49.566Z,13.00
2023-03-05T13:30:27.373Z,14.37
2023-03-05T13:33:03.117Z,12.80
2023-03-05T13:35:34.041Z,11.37
2023-03-05T13:38:05.785Z,12.73
2023-03-05T13:40:35.582Z,13.90
2023-03-05T13:43:12.498Z,11.77
2023-03-05T13:45:41.812Z,11.93
2023-03-05T13:48:20.851Z,11.97
2023-03-05T13:50:56.419Z,11.73
2023-03-05T13:53:27.346Z,12.20
2023-03-05T13:55:58.884Z,14.63
2023-03-05T13:58:52.860Z,12.10
2023-03-05T14:01:31.317Z,11.40
2023-03-05T14:04:06.183Z,11.80
2023-03-05T14:06:44.386Z,12.90
2023-03-05T14:09:22.219Z,13.43
2023-03-05T14:11:59.996Z,11.43
2023-03-05T14:14:30.825Z,13.40
2023-03-05T14:17:25.216Z,11.70
2023-03-05T14:20:08.959Z,12.47
2023-03-05T14:22:40.482Z,12.63
2023-03-05T14:25:30.287Z,12.00
2023-03-05T14:28:00.838Z,11.87
2023-03-05T14:30:31.566Z,12.30
2023-03-05T14:33:01.976Z,12.00
2023-03-05T14:35:34.267Z,11.90
2023-03-05T14:38:06.847Z,12.30
2023-03-05T14:40:38.545Z,11.10
2023-03-05T14:43:11.585Z,11.50
2023-03-05T14:45:44.242Z,13.07
2023-03-05T14:48:15.620Z,12.70
2023-03-05T14:50:47.522Z,12.73
2023-03-05T14:53:19.460Z,13.37
2023-03-05T14:55:50.921Z,12.07
2023-03-05T14:58:26.329Z,12.73
2023-03-05T15:00:57.219Z,13.43
2023-03-05T15:03:28.595Z,15.47
2023-03-05T15:06:04.911Z,14.40
2023-03-05T15:08:35.415Z,16.17
2023-03-05T15:11:07.487Z,14.73
2023-03-05T15:13:39.870Z,14.03
2023-03-05T15:16:10.328Z,14.67
2023-03-05T15:18:40.575Z,15.30
2023-03-05T15:21:13.189Z,15.53
2023-03-05T15:23:44.741Z,15.33
2023-03-05T15:26:16.958Z,17.13
2023-03-05T15:28:48.597Z,15.53
2023-03-05T15:31:19.543Z,13.57
2023-03-05T15:33:49.833Z,14.53
2023-03-05T15:36:21.291Z,14.17
2023-03-05T15:38:52.434Z,14.20
2023-03-05T15:41:23.853Z,13.70
2023-03-05T15:43:56.451Z,15.90
2023-03-05T15:46:26.611Z,15.60
2023-03-05T15:48:56.882Z,15.30
2023-03-05T15:51:28.986Z,15.90
2023-03-05T15:54:03.231Z,16.53
2023-03-05T15:56:33.920Z,17.70
2023-03-05T15:59:03.975Z,16.00
2023-03-05T16:01:34.681Z,14.47
2023-03-05T16:04:05.258Z,14.80
2023-03-05T16:06:40.256Z,15.93
2023-03-05T16:09:10.033Z,15.10
2023-03-05T16:11:42.740Z,14.60
2023-03-05T16:14:13.122Z,15.10
2023-03-05T16:16:42.732Z,14.80
2023-03-05T16:19:14.691Z,14.97
2023-03-05T16:21:47.604Z,15.10
2023-03-05T16:24:21.374Z,12.50
2023-03-05T16:26:51.888Z,14.73
2023-03-05T16:29:23.235Z,14.50
2023-03-05T16:31:53.981Z,14.10
2023-03-05T16:34:26.312Z,14.00
2023-03-05T16:37:01.795Z,12.97
2023-03-05T16:39:34.604Z,12.40
2023-03-05T16:42:08.811Z,13.60
2023-03-05T16:44:39.676Z,14.93
2023-03-05T16:47:10.265Z,14.00
2023-03-05T16:49:42.817Z,13.30
2023-03-05T16:52:19.218Z,14.87
2023-03-05T16:54:51.044Z,13.97
2023-03-05T16:57:23.135Z,14.20
2023-03-05T16:59:54.626Z,12.47
2023-03-05T17:02:25.367Z,12.80
2023-03-05T17:04:57.042Z,13.20
2023-03-05T17:07:29.402Z,12.80
2023-03-05T17:10:00.465Z,13.43
2023-03-05T17:12:33.014Z,12.90
2023-03-05T17:15:03.820Z,12.63
2023-03-05T17:17:34.266Z,12.83
2023-03-05T17:20:05.237Z,13.10
2023-03-05T17:22:37.799Z,14.10
2023-03-05T17:25:11.481Z,14.13
2023-03-05T17:27:41.485Z,12.20
2023-03-05T17:30:14.211Z,14.33
2023-03-05T17:32:45.684Z,12.67
2023-03-05T17:35:20.129Z,12.03
2023-03-05T17:37:55.935Z,12.07
2023-03-05T17:40:32.157Z,12.60
2023-03-05T17:43:03.602Z,11.97
2023-03-05T17:45:36.590Z,13.40
2023-03-05T17:48:09.206Z,13.20
2023-03-05T17:50:43.621Z,12.40
2023-03-05T17:53:19.091Z,14.77
2023-03-05T17:55:49.565Z,13.30
2023-03-05T17:58:19.806Z,14.47
2023-03-05T18:00:50.365Z,13.87
2023-03-05T18:03:21.452Z,16.97
2023-03-05T18:05:52.482Z,14.63
2023-03-05T18:08:28.156Z,14.83
2023-03-05T18:10:58.670Z,15.27
2023-03-05T18:13:29.780Z,14.60
2023-03-05T18:16:00.929Z,13.13
2023-03-05T18:18:32.091Z,12.50
2023-03-05T18:21:03.444Z,13.63
2023-03-05T18:23:35.037Z,15.07
2023-03-05T18:26:04.993Z,20.43
2023-03-05T18:28:35.881Z,15.00
2023-03-05T18:31:06.148Z,17.00
2023-03-05T18:33:39.548Z,14.60
2023-03-05T18:36:11.953Z,13.43
2023-03-05T18:38:46.827Z,13.57
2023-03-05T18:41:27.841Z,14.23
2023-03-05T18:44:02.506Z,14.33
2023-03-05T18:46:33.294Z,13.17
2023-03-05T18:49:07.668Z,13.73
2023-03-05T18:51:40.688Z,15.63
2023-03-05T18:54:14.682Z,13.50
2023-03-05T18:56:47.801Z,13.77
2023-03-05T18:59:20.123Z,13.70
2023-03-05T19:01:59.924Z,13.60
2023-03-05T19:04:35.301Z,14.03
2023-03-05T19:07:08.047Z,13.20
2023-03-05T19:09:52.899Z,14.17
2023-03-05T19:12:23.284Z,12.10
2023-03-05T19:14:55.748Z,13.13
2023-03-05T19:17:27.711Z,13.77
2023-03-05T19:20:00.476Z,13.70
2023-03-05T19:22:34.161Z,13.53
2023-03-05T19:25:16.950Z,13.97
2023-03-05T19:27:48.961Z,11.20
2023-03-05T19:30:20.676Z,13.87
2023-03-05T19:32:50.516Z,13.37
2023-03-05T19:35:25.831Z,14.50
2023-03-05T19:37:57.412Z,14.33
2023-03-05T19:40:35.578Z,12.40
2023-03-05T19:43:07.560Z,12.43
2023-03-05T19:45:45.216Z,12.47
2023-03-05T19:48:19.361Z,12.50
2023-03-05T19:53:36.766Z,15.00
2023-03-05T19:56:12.298Z,12.03
2023-03-05T19:58:47.042Z,10.57
2023-03-05T20:01:48.284Z,11.50
2023-03-05T20:04:24.413Z,13.43
2023-03-05T20:06:55.832Z,11.43
2023-03-05T20:12:48.464Z,10.67
2023-03-05T20:15:21.865Z,10.93
2023-03-05T20:17:54.763Z,11.50
2023-03-05T20:20:26.275Z,8.53
2023-03-05T20:22:56.964Z,11.87
2023-03-05T20:25:27.672Z,9.90
2023-03-05T20:28:05.064Z,10.23
2023-03-05T20:30:48.588Z,12.60
2023-03-05T20:33:27.548Z,12.30
2023-03-05T20:35:58.212Z,10.27
2023-03-05T20:38:35.150Z,11.13
2023-03-05T20:41:09.663Z,13.50
2023-03-05T20:43:47.032Z,11.30
2023-03-05T20:46:32.145Z,11.20
2023-03-05T20:49:04.036Z,11.30
2023-03-05T20:51:35.694Z,10.60
2023-03-05T20:54:11.138Z,11.10
2023-03-05T20:56:42.124Z,10.43
2023-03-05T20:59:14.691Z,10.40
2023-03-05T21:01:48.319Z,11.20
2023-03-05T21:04:18.760Z,10.53
2023-03-05T21:06:55.884Z,10.10
2023-03-05T21:09:25.727Z,10.77
2023-03-05T21:11:55.958Z,10.80
2023-03-05T21:14:29.112Z,9.50
2023-03-05T21:16:59.605Z,11.00
2023-03-05T21:19:33.671Z,10.13
2023-03-05T21:22:04.028Z,10.37
2023-03-05T21:24:46.348Z,9.60
2023-03-05T21:27:16.233Z,8.37
2023-03-05T21:29:47.269Z,10.67
2023-03-05T21:32:17.323Z,10.80
2023-03-05T21:34:48.832Z,9.63
2023-03-05T21:37:18.036Z,11.33
2023-03-05T21:39:46.607Z,9.73
2023-03-05T21:42:15.406Z,9.87
2023-03-05T21:44:45.242Z,11.10
2023-03-05T21:47:14.086Z,7.93
2023-03-05T21:49:43.969Z,9.30
2023-03-05T21:52:13.142Z,10.07
2023-03-05T21:54:43.568Z,9.10
2023-03-05T21:57:13.360Z,9.67
2023-03-05T21:59:42.193Z,9.50
2023-03-05T22:02:13.489Z,9.63
2023-03-05T22:04:43.449Z,9.77
2023-03-05T22:07:11.984Z,9.47
2023-03-05T22:09:40.443Z,10.50
2023-03-05T22:12:10.275Z,8.97
2023-03-05T22:14:38.629Z,9.60
2023-03-05T22:17:06.964Z,9.50
2023-03-05T22:19:36.767Z,10.03
2023-03-05T22:22:05.086Z,9.30
2023-03-05T22:24:33.395Z,10.00
2023-03-05T22:27:02.064Z,9.80
2023-03-05T22:29:31.159Z,10.00
2023-03-05T22:31:59.544Z,9.97
2023-03-05T22:34:28.957Z,8.70
2023-03-05T22:36:59.203Z,8.93
2023-03-05T22:39:27.560Z,9.60
2023-03-05T22:41:55.895Z,9.30
2023-03-05T22:44:25.212Z,8.40
2023-03-05T22:46:53.546Z,8.90
2023-03-05T22:49:22.122Z,7.40
2023-03-05T22:51:50.415Z,7.97
2023-03-05T22:54:20.185Z,8.77
2023-03-05T22:56:48.444Z,9.37
2023-03-05T22:59:16.665Z,8.43
2023-03-05T23:01:44.944Z,8.17
2023-03-05T23:04:19.204Z,9.60
2023-03-05T23:06:48.621Z,7.63
2023-03-05T23:09:16.913Z,8.30
2023-03-05T23:11:46.840Z,7.97
2023-03-05T23:14:15.565Z,9.47
2023-03-05T23:16:43.855Z,6.97
2023-03-05T23:19:12.133Z,7.53
2023-03-05T23:21:40.440Z,9.27
2023-03-05T23:24:09.689Z,8.60
2023-03-05T23:26:38.150Z,7.90
2023-03-05T23:29:07.913Z,7.10
2023-03-05T23:31:36.279Z,7.50
2023-03-05T23:34:04.627Z,6.47
2023-03-05T23:36:32.998Z,8.33
2023-03-05T23:39:01.332Z,7.23
2023-03-05T23:41:29.628Z,8.00
2023-03-05T23:43:57.946Z,8.17
2023-03-05T23:46:27.676Z,7.73
2023-03-05T23:48:55.940Z,8.43
2023-03-05T23:51:24.444Z,8.17
2023-03-05T23:53:53.226Z,8.00
2023-03-05T23:56:21.508Z,7.90
2023-03-05T23:58:50.769Z,6.93
